Time;durP1;ratioP1;P1;durP2;ratioP2;P2;SDS_P1;SDS_P2;PMS_P1;PMS_P2;Temp;Humidity;BMP_temperature;BMP_pressure;BME280_temperature;BME280_humidity;BME280_pressure;Samples;Min_cycle;Max_cycle;Signal;HPM_P1;HPM_P2
2022/09/01 00:00:12;;;;;;;1.98;1.52;;;;;;;18.11;56.23;101964.56;5034971;28;20045;-51
2022/09/01 00:02:41;;;;;;;1.67;1.55;;;;;;;18.07;56.63;101960.78;5016729;28;20041;-54
2022/09/01 00:05:10;;;;;;;3.30;1.67;;;;;;;18.09;56.54;101959.38;5035443;28;20049;-49
2022/09/01 00:07:39;;;;;;;3.47;1.83;;;;;;;18.07;56.99;101956.06;5034629;28;20041;-50
2022/09/01 00:10:08;;;;;;;4.32;1.50;;;;;;;18.06;57.01;101959.13;5001605;28;20068;-55
2022/09/01 00:12:36;;;;;;;7.65;2.10;;;;;;;17.95;57.58;101952.06;5035338;28;20195;-48
2022/09/01 00:15:07;;;;;;;5.05;1.80;;;;;;;17.90;58.11;101954.88;5034485;28;20603;-48
2022/09/01 00:17:35;;;;;;;3.67;1.70;;;;;;;17.96;58.04;101954.53;5040632;28;20052;-51
2022/09/01 00:20:03;;;;;;;2.95;1.63;;;;;;;17.95;58.32;101952.06;5021915;28;20041;-50
2022/09/01 00:22:32;;;;;;;1.70;1.42;;;;;;;17.96;58.43;101957.28;5017404;28;20041;-52
2022/09/01 00:25:00;;;;;;;3.42;1.80;;;;;;;18.08;57.94;101952.19;5034983;28;20041;-49
2022/09/01 00:27:28;;;;;;;3.72;1.77;;;;;;;18.09;58.13;101951.09;5035330;28;20045;-51
2022/09/01 00:29:58;;;;;;;2.67;1.63;;;;;;;18.00;58.53;101960.28;5032333;28;20037;-51
2022/09/01 00:32:27;;;;;;;2.08;1.67;;;;;;;18.04;58.54;101953.09;5016897;28;20045;-51
2022/09/01 00:34:54;;;;;;;4.18;2.05;;;;;;;18.02;58.72;101958.06;5034415;28;20048;-51
2022/09/01 00:37:22;;;;;;;5.45;1.67;;;;;;;17.95;58.90;101952.88;5043497;28;20068;-54
2022/09/01 00:39:50;;;;;;;2.92;1.60;;;;;;;17.92;59.18;101947.13;5018336;28;20041;-51
2022/09/01 00:42:18;;;;;;;2.70;1.80;;;;;;;17.94;59.28;101950.41;5016418;28;20049;-52
2022/09/01 00:44:46;;;;;;;2.30;1.73;;;;;;;17.88;59.54;101950.47;5016419;28;20052;-49
2022/09/01 00:47:14;;;;;;;3.70;1.75;;;;;;;17.88;59.71;101950.47;4981507;28;20037;-48
2022/09/01 00:49:46;;;;;;;3.15;1.80;;;;;;;17.95;59.35;101946.56;5029552;28;20046;-48
2022/09/01 00:52:34;;;;;;;3.90;1.60;;;;;;;17.91;59.55;101939.97;5007573;28;20052;-48
2022/09/01 00:55:12;;;;;;;3.20;1.50;;;;;;;17.84;59.65;101935.59;5034123;28;20500;-51
2022/09/01 00:57:40;;;;;;;4.43;1.83;;;;;;;17.68;60.63;101942.34;5006306;28;20592;-52
2022/09/01 01:00:19;;;;;;;2.33;1.70;;;;;;;17.53;61.23;101939.72;5015513;28;20052;-52
2022/09/01 01:02:51;;;;;;;3.75;1.60;;;;;;;17.45;61.71;101941.97;4996417;28;20041;-50
2022/09/01 01:05:33;;;;;;;2.92;1.83;;;;;;;17.50;61.69;101940.28;5007607;28;20049;-53
2022/09/01 01:08:01;;;;;;;5.15;1.75;;;;;;;17.59;61.35;101941.31;5024422;28;20046;-51
2022/09/01 01:10:35;;;;;;;3.75;1.70;;;;;;;17.65;61.51;101942.91;5031343;28;20034;-52
2022/09/01 01:13:12;;;;;;;6.30;2.03;;;;;;;17.73;61.02;101936.78;5032268;28;20049;-51
2022/09/01 01:15:44;;;;;;;4.80;1.95;;;;;;;17.74;61.14;101940.38;5034050;28;20055;-50
2022/09/01 01:18:13;;;;;;;6.18;2.17;;;;;;;17.66;61.60;101928.03;5015659;28;20500;-50
2022/09/01 01:23:35;;;;;;;3.45;1.60;;;;;;;17.45;62.52;101936.44;5017150;28;20029;-54
2022/09/01 01:26:05;;;;;;;5.60;2.00;;;;;;;17.47;62.52;101936.19;4997086;28;20053;-50
2022/09/01 01:28:37;;;;;;;3.58;1.67;;;;;;;17.52;62.31;101938.06;5045188;28;20049;-48
2022/09/01 01:31:11;;;;;;;2.67;2.05;;;;;;;17.58;62.18;101937.75;5012108;28;20057;-50
2022/09/01 01:33:51;;;;;;;4.97;1.67;;;;;;;17.48;62.75;101934.25;5014380;28;20049;-53
2022/09/01 01:36:24;;;;;;;4.03;1.42;;;;;;;17.38;62.83;101935.97;4999594;28;20038;-50
2022/09/01 01:38:54;;;;;;;2.35;1.75;;;;;;;17.41;62.87;101943.66;5002511;28;20042;-51
2022/09/01 01:41:23;;;;;;;2.50;1.80;;;;;;;17.44;62.94;101936.75;5015461;28;20107;-50
2022/09/01 01:43:50;;;;;;;3.85;1.90;;;;;;;17.39;62.98;101940.38;5031029;28;20045;-49
2022/09/01 01:46:21;;;;;;;5.00;2.10;;;;;;;17.40;63.21;101933.75;5016999;28;20045;-48
2022/09/01 01:48:51;;;;;;;3.40;1.73;;;;;;;17.40;63.54;101947.53;5015285;28;20072;-49
2022/09/01 01:51:23;;;;;;;4.30;1.67;;;;;;;17.33;63.73;101936.00;5015151;28;20049;-49
2022/09/01 01:53:51;;;;;;;5.40;2.10;;;;;;;17.30;63.69;101947.59;5014184;28;20034;-55
2022/09/01 01:56:24;;;;;;;4.68;1.90;;;;;;;17.30;63.69;101941.28;5041650;28;20037;-52
2022/09/01 01:58:54;;;;;;;2.25;1.85;;;;;;;17.25;64.00;101942.94;5037096;28;20045;-53
2022/09/01 02:01:24;;;;;;;7.13;1.92;;;;;;;17.25;64.13;101942.13;5015075;28;20053;-52
2022/09/01 02:03:53;;;;;;;3.85;2.10;;;;;;;17.26;63.88;101938.25;5018393;28;20110;-53
2022/09/01 02:06:23;;;;;;;5.78;2.42;;;;;;;17.26;64.21;101946.50;5023631;28;20052;-51
2022/09/01 02:08:58;;;;;;;4.00;1.63;;;;;;;17.32;63.74;101942.63;5015311;28;20408;-51
2022/09/01 02:11:26;;;;;;;3.65;1.50;;;;;;;17.18;64.17;101939.69;5015582;28;20037;-50
2022/09/01 02:13:56;;;;;;;2.92;1.73;;;;;;;17.08;65.01;101944.41;5016661;28;20038;-51
2022/09/01 02:16:26;;;;;;;2.53;1.63;;;;;;;16.97;65.33;101938.97;5013986;28;20041;-50
2022/09/01 02:18:55;;;;;;;2.17;1.63;;;;;;;16.95;65.42;101940.38;5015582;28;20041;-49
2022/09/01 02:21:25;;;;;;;2.65;1.73;;;;;;;17.07;65.20;101937.28;4999114;28;20037;-49
2022/09/01 02:24:00;;;;;;;5.70;1.67;;;;;;;17.13;64.78;101947.16;5015692;28;20048;-50
2022/09/01 02:26:44;;;;;;;4.55;1.92;;;;;;;17.24;64.30;101943.22;5015130;28;20053;-50
2022/09/01 02:29:19;;;;;;;3.88;1.50;;;;;;;17.12;64.32;101934.47;4998567;28;20041;-51
2022/09/01 02:31:50;;;;;;;4.95;2.03;;;;;;;17.07;64.77;101938.09;5019745;28;20053;-51
2022/09/01 02:34:19;;;;;;;4.38;2.00;;;;;;;17.09;64.66;101937.81;5022267;28;20045;-51
2022/09/01 02:36:49;;;;;;;4.70;1.88;;;;;;;17.11;64.94;101928.16;5023823;28;20042;-52
2022/09/01 02:39:27;;;;;;;5.15;2.05;;;;;;;17.17;64.98;101931.69;5018676;28;20056;-54
2022/09/01 02:41:55;;;;;;;4.55;2.20;;;;;;;17.27;64.00;101930.81;4998475;28;20053;-50
2022/09/01 02:44:26;;;;;;;4.10;1.85;;;;;;;17.21;63.80;101932.78;5016157;28;20045;-51
2022/09/01 02:46:54;;;;;;;9.50;2.13;;;;;;;17.17;63.88;101935.28;4998192;28;20052;-48
2022/09/01 02:49:27;;;;;;;2.33;1.77;;;;;;;17.20;64.25;101936.66;5014994;28;20037;-50
2022/09/01 02:51:58;;;;;;;2.78;1.60;;;;;;;17.25;64.00;101936.63;5020265;28;20051;-54
2022/09/01 02:54:28;;;;;;;3.65;1.90;;;;;;;17.21;63.61;101933.59;5009267;28;20515;-52
2022/09/01 02:56:56;;;;;;;2.95;1.90;;;;;;;17.16;63.71;101930.88;5013677;28;20038;-51
2022/09/01 02:59:26;;;;;;;4.85;2.30;;;;;;;17.12;64.05;101928.97;5001432;28;20092;-49
2022/09/01 03:01:57;;;;;;;6.00;2.30;;;;;;;17.11;64.10;101927.34;5014035;28;20057;-50
2022/09/01 03:04:25;;;;;;;5.55;2.03;;;;;;;17.12;64.11;101923.47;5016047;28;20042;-50
2022/09/01 03:06:57;;;;;;;2.22;1.90;;;;;;;17.14;63.71;101916.56;5033944;28;20045;-50
2022/09/01 03:09:25;;;;;;;5.40;2.08;;;;;;;17.09;63.62;101919.34;5035300;28;20091;-52
2022/09/01 03:11:54;;;;;;;6.05;2.20;;;;;;;16.94;64.22;101920.28;5025915;28;20044;-52
2022/09/01 03:14:24;;;;;;;3.15;1.98;;;;;;;16.89;64.62;101925.81;5004937;28;20055;-54
2022/09/01 03:16:53;;;;;;;3.83;2.15;;;;;;;16.95;64.45;101919.16;5023998;28;20041;-53
2022/09/01 03:19:21;;;;;;;3.05;2.25;;;;;;;16.95;63.79;101921.91;5016017;28;20053;-48
2022/09/01 03:21:49;;;;;;;9.02;2.53;;;;;;;16.99;63.77;101924.94;5036224;28;20049;-49
2022/09/01 03:24:23;;;;;;;3.75;2.08;;;;;;;16.99;63.64;101919.44;5024292;28;20407;-54
2022/09/01 03:26:52;;;;;;;4.82;1.95;;;;;;;16.99;64.03;101920.25;5034588;28;20049;-48
2022/09/01 03:29:20;;;;;;;4.00;1.83;;;;;;;17.03;64.00;101923.25;5033209;28;20111;-49
2022/09/01 03:31:48;;;;;;;5.50;2.00;;;;;;;16.99;63.30;101914.75;5019378;28;20041;-50
2022/09/01 03:34:19;;;;;;;3.80;2.10;;;;;;;16.87;63.85;101919.75;5018776;28;20045;-50
2022/09/01 03:36:49;;;;;;;4.60;2.15;;;;;;;16.85;63.79;101919.22;5031514;28;20037;-48
2022/09/01 03:39:26;;;;;;;6.00;1.92;;;;;;;16.84;63.69;101917.59;5036241;28;20040;-52
2022/09/01 03:41:55;;;;;;;3.60;2.05;;;;;;;16.76;63.83;101920.88;5004292;28;20524;-48
2022/09/01 03:44:23;;;;;;;3.97;1.92;;;;;;;16.80;63.83;101927.50;5017665;28;20093;-49
2022/09/01 03:46:51;;;;;;;4.05;2.00;;;;;;;16.77;63.43;101915.09;5017949;28;20046;-51
2022/09/01 03:49:26;;;;;;;5.85;2.53;;;;;;;16.73;63.35;101921.47;5040279;28;20029;-52
2022/09/01 03:51:57;;;;;;;4.10;1.83;;;;;;;16.63;63.35;101927.00;5035599;28;20045;-50
2022/09/01 03:54:29;;;;;;;3.17;1.90;;;;;;;16.66;63.34;101926.44;5004999;28;20091;-49
2022/09/01 03:56:58;;;;;;;4.07;1.90;;;;;;;16.69;63.12;101925.88;5050581;28;20092;-51
2022/09/01 03:59:28;;;;;;;3.75;2.08;;;;;;;16.68;63.27;101922.31;5049881;28;20072;-48
2022/09/01 04:01:58;;;;;;;2.67;1.77;;;;;;;16.64;62.55;101925.91;5017699;28;20071;-51
2022/09/01 04:04:28;;;;;;;7.95;2.40;;;;;;;16.53;63.20;101914.13;5000923;28;20050;-51
2022/09/01 04:06:55;;;;;;;4.43;2.15;;;;;;;16.47;62.80;101918.00;5048572;28;20069;-53
2022/09/01 04:09:23;;;;;;;5.88;2.17;;;;;;;16.37;63.18;101916.09;5032341;28;20121;-50
2022/09/01 04:11:52;;;;;;;5.70;2.33;;;;;;;16.40;63.06;101918.28;5023001;28;20132;-52
2022/09/01 04:14:22;;;;;;;6.85;2.30;;;;;;;16.38;63.01;101910.31;5042807;28;20041;-52
2022/09/01 04:19:38;;;;;;;5.43;2.20;;;;;;;16.45;62.61;101912.78;5017173;28;20404;-49
2022/09/01 04:22:12;;;;;;;4.15;2.08;;;;;;;16.48;61.98;101909.47;5015897;28;20442;-49
2022/09/01 04:24:44;;;;;;;3.35;1.98;;;;;;;16.54;61.77;101916.56;5016743;28;20100;-52
2022/09/01 04:27:13;;;;;;;4.65;1.95;;;;;;;16.54;61.73;101908.31;5034784;28;20106;-51
2022/09/01 04:29:41;;;;;;;3.58;2.10;;;;;;;16.52;62.12;101918.78;5016737;28;20037;-51
2022/09/01 04:32:11;;;;;;;4.47;2.08;;;;;;;16.44;61.99;101918.56;4999744;28;20492;-51
2022/09/01 04:34:43;;;;;;;5.95;2.17;;;;;;;16.43;62.14;101922.41;5016370;28;20057;-54
2022/09/01 04:37:17;;;;;;;4.90;2.30;;;;;;;16.46;61.95;101924.59;4997495;28;20455;-53
2022/09/01 04:39:52;;;;;;;5.07;2.05;;;;;;;16.42;62.03;101923.50;5021578;28;20051;-53
2022/09/01 04:42:27;;;;;;;8.10;2.15;;;;;;;16.40;61.96;101923.78;5032656;28;20082;-51
2022/09/01 04:44:58;;;;;;;6.47;2.42;;;;;;;16.34;61.96;101920.22;5015785;28;20055;-55
2022/09/01 04:47:30;;;;;;;5.45;2.33;;;;;;;16.29;62.31;101917.50;5022140;28;20045;-53
2022/09/01 04:50:12;;;;;;;8.23;2.50;;;;;;;16.33;62.41;101918.59;5016617;28;20045;-52
2022/09/01 04:52:46;;;;;;;7.47;2.50;;;;;;;16.24;62.62;101916.72;5034036;28;20037;-50
2022/09/01 04:55:28;;;;;;;5.82;2.50;;;;;;;16.21;62.35;101922.75;5015643;28;20034;-52
2022/09/01 04:57:58;;;;;;;6.45;2.33;;;;;;;16.18;62.82;101915.88;5000470;28;20049;-51
2022/09/01 05:00:30;;;;;;;3.50;2.03;;;;;;;16.15;63.05;101922.75;5016127;28;20041;-52
2022/09/01 05:03:03;;;;;;;4.15;2.30;;;;;;;16.12;62.79;101923.31;5032729;28;20052;-53
2022/09/01 05:05:52;;;;;;;6.93;2.20;;;;;;;16.02;63.41;101923.34;5032012;28;20044;-51
2022/09/01 05:08:22;;;;;;;5.07;2.22;;;;;;;16.05;63.73;101928.28;5000276;28;20072;-50
2022/09/01 05:10:55;;;;;;;5.97;2.88;;;;;;;16.10;63.15;101925.53;5015897;28;20049;-49
2022/09/01 05:13:44;;;;;;;6.30;2.50;;;;;;;16.10;63.16;101913.72;5015707;28;20041;-51
2022/09/01 05:16:20;;;;;;;5.15;2.38;;;;;;;16.12;62.83;101917.81;5019391;28;20484;-48
2022/09/01 05:18:56;;;;;;;9.95;2.97;;;;;;;16.06;63.07;101927.16;5001579;28;20045;-49
2022/09/01 05:21:28;;;;;;;7.75;2.33;;;;;;;16.12;63.35;101923.31;5017656;28;20041;-48
2022/09/01 05:24:00;;;;;;;4.65;1.98;;;;;;;16.24;63.10;101924.97;5021913;28;20037;-47
2022/09/01 05:26:30;;;;;;;5.07;2.22;;;;;;;16.22;62.94;101922.47;5017880;28;20041;-46
2022/09/01 05:29:00;;;;;;;5.20;2.03;;;;;;;16.17;63.06;101928.81;5016280;28;20060;-49
2022/09/01 05:31:33;;;;;;;4.22;2.15;;;;;;;16.16;63.05;101923.56;5015396;28;20052;-49
2022/09/01 05:34:02;;;;;;;3.92;2.20;;;;;;;16.24;63.08;101922.22;4995435;28;20092;-50
2022/09/01 05:36:32;;;;;;;5.60;2.53;;;;;;;16.27;62.37;101933.47;4979844;28;20041;-50
2022/09/01 05:39:00;;;;;;;5.15;2.20;;;;;;;16.29;62.14;101924.94;5015386;28;20068;-49
2022/09/01 05:41:29;;;;;;;8.63;2.67;;;;;;;16.23;62.21;101928.78;5016645;28;20381;-49
2022/09/01 05:43:57;;;;;;;7.22;2.22;;;;;;;16.26;62.76;101933.72;4998777;28;20041;-49
2022/09/01 05:46:28;;;;;;;6.50;2.42;;;;;;;16.27;62.45;101935.38;4999926;28;20048;-52
2022/09/01 05:48:58;;;;;;;5.93;2.50;;;;;;;16.24;62.32;101935.97;4999786;28;20075;-47
2022/09/01 05:51:27;;;;;;;6.18;2.45;;;;;;;16.25;62.47;101949.41;5032976;28;20041;-48
2022/09/01 05:54:24;;;;;;;5.68;2.20;;;;;;;16.32;62.20;101944.44;5015150;28;20041;-48
2022/09/01 05:56:54;;;;;;;10.90;2.55;;;;;;;16.32;62.16;101943.63;5015735;28;20048;-50
2022/09/01 05:59:26;;;;;;;5.63;2.63;;;;;;;16.25;62.32;101943.91;5000111;28;20044;-50
2022/09/01 06:01:59;;;;;;;9.38;2.60;;;;;;;16.26;62.52;101945.56;5012545;28;20057;-51
2022/09/01 06:04:28;;;;;;;7.25;2.60;;;;;;;16.27;62.06;101938.13;5013093;28;20421;-52
2022/09/01 06:07:06;;;;;;;6.05;2.60;;;;;;;16.29;61.92;101941.44;5012638;28;20044;-50
2022/09/01 06:09:39;;;;;;;;;;;;;;;16.28;61.99;101943.34;5011878;28;20043;-46
2022/09/01 06:12:16;;;;;;;7.60;2.22;;;;;;;16.36;62.62;101945.53;5025213;28;19928;-50
2022/09/01 06:14:46;;;;;;;7.75;2.40;;;;;;;16.36;61.86;101944.72;4998495;28;20042;-50
2022/09/01 06:17:20;;;;;;;5.78;2.05;;;;;;;16.43;61.52;101944.41;5011335;28;20065;-50
2022/09/01 06:19:51;;;;;;;12.27;2.58;;;;;;;16.41;61.04;101947.44;5005071;28;20499;-50
2022/09/01 06:22:20;;;;;;;5.95;2.17;;;;;;;16.44;61.68;101951.56;5011617;28;20037;-52
2022/09/01 06:24:53;;;;;;;9.13;2.45;;;;;;;16.46;60.91;101949.38;5011808;28;20038;-51
2022/09/01 06:27:28;;;;;;;8.05;2.58;;;;;;;16.29;61.37;101950.50;5024542;28;20046;-50
2022/09/01 06:29:56;;;;;;;7.47;2.53;;;;;;;16.19;61.99;101958.78;5011317;28;20096;-50
2022/09/01 06:32:25;;;;;;;6.18;2.30;;;;;;;16.18;62.01;101963.44;5012449;28;20504;-51
2022/09/01 06:34:56;;;;;;;6.97;2.75;;;;;;;16.23;61.53;101962.59;5011347;28;20046;-51
2022/09/01 06:37:25;;;;;;;4.75;2.47;;;;;;;16.26;61.91;101955.72;5010198;28;20096;-54
2022/09/01 06:39:57;;;;;;;7.53;2.80;;;;;;;16.29;61.69;101961.50;5012842;28;20034;-50
2022/09/01 06:42:27;;;;;;;6.40;2.40;;;;;;;16.30;61.93;101962.31;5015689;28;20037;-50
2022/09/01 06:44:59;;;;;;;5.93;2.47;;;;;;;16.34;62.08;101952.44;5000092;28;20046;-50
2022/09/01 06:47:27;;;;;;;6.30;2.90;;;;;;;16.41;61.89;101961.22;4998734;28;20049;-50
2022/09/01 06:49:57;;;;;;;5.15;2.13;;;;;;;16.50;61.88;101961.44;4307049;28;10000798;-49
2022/09/01 06:52:26;;;;;;;7.40;2.90;;;;;;;16.55;61.59;101955.94;5028157;28;20037;-53
2022/09/01 06:54:56;;;;;;;7.53;2.50;;;;;;;16.54;61.69;101963.34;5012294;28;20049;-53
2022/09/01 06:57:26;;;;;;;4.32;2.15;;;;;;;16.59;61.44;101960.56;5010336;28;20042;-50
2022/09/01 07:00:19;;;;;;;9.73;3.00;;;;;;;16.68;61.93;101962.75;5012131;28;20045;-50
2022/09/01 07:02:53;;;;;;;8.45;2.50;;;;;;;16.71;61.60;101964.94;5015320;28;20053;-49
2022/09/01 07:05:46;;;;;;;6.63;2.58;;;;;;;16.78;61.44;101962.72;5015256;28;20049;-52
2022/09/01 07:08:54;;;;;;;10.38;2.55;;;;;;;16.86;61.19;101958.56;5030567;28;20640;-49
2022/09/01 07:11:45;;;;;;;6.60;2.55;;;;;;;16.95;60.65;101968.72;5015420;28;20050;-50
2022/09/01 07:14:32;;;;;;;7.75;2.50;;;;;;;16.98;60.65;101962.66;5014722;28;20400;-50
2022/09/01 07:17:00;;;;;;;10.35;2.45;;;;;;;17.06;61.20;101968.69;5033161;28;20524;-50
2022/09/01 07:19:48;;;;;;;7.20;2.72;;;;;;;17.09;60.92;101977.19;5007290;28;20409;-51
2022/09/01 07:22:16;;;;;;;11.63;2.38;;;;;;;17.13;60.29;101975.53;5022409;28;20038;-47
2022/09/01 07:25:06;;;;;;;5.15;2.08;;;;;;;17.21;60.06;101971.34;5020499;28;20038;-51
2022/09/01 07:27:53;;;;;;;9.95;2.53;;;;;;;17.28;60.27;101974.59;5006613;28;20056;-49
2022/09/01 07:30:27;;;;;;;9.52;2.60;;;;;;;17.31;59.70;101970.44;5018216;28;20049;-49
2022/09/01 07:32:56;;;;;;;5.00;2.17;;;;;;;17.33;59.83;101977.31;5034081;28;20042;-48
2022/09/01 07:35:44;;;;;;;4.45;2.38;;;;;;;17.38;59.91;101974.53;5019262;28;20103;-49
2022/09/01 07:38:32;;;;;;;9.32;2.70;;;;;;;17.44;59.54;101976.16;5010727;28;20057;-50
2022/09/01 07:41:23;;;;;;;20.30;5.03;;;;;;;17.54;58.98;101977.19;5013484;28;20038;-49
2022/09/01 07:44:46;;;;;;;11.00;2.67;;;;;;;17.56;59.01;101973.03;5035477;28;20055;-48
2022/09/01 07:47:35;;;;;;;8.48;3.10;;;;;;;17.63;58.29;101972.69;5033523;28;20049;-50
2022/09/01 07:50:22;;;;;;;10.70;2.92;;;;;;;17.71;58.27;101974.03;5018078;28;20045;-50
2022/09/01 07:53:11;;;;;;;24.70;5.47;;;;;;;17.82;58.50;101976.44;5017026;28;20120;-50
2022/09/01 07:55:40;;;;;;;10.68;3.35;;;;;;;17.91;57.92;101978.56;5018133;28;20056;-51
2022/09/01 07:58:12;;;;;;;10.23;2.65;;;;;;;17.96;57.87;101973.81;5033723;28;20042;-51
2022/09/01 08:00:44;;;;;;;9.75;2.80;;;;;;;17.99;57.50;101969.66;5014300;28;20053;-53
2022/09/01 08:03:13;;;;;;;4.20;2.17;;;;;;;18.04;57.41;101977.91;5013930;28;20096;-49
2022/09/01 08:05:42;;;;;;;9.05;2.50;;;;;;;18.05;56.95;101974.03;5014712;28;20076;-49
2022/09/01 08:08:10;;;;;;;5.72;1.98;;;;;;;18.08;57.22;101967.94;5014583;28;20501;-52
2022/09/01 08:10:47;;;;;;;9.77;2.70;;;;;;;18.14;57.73;101980.56;5021410;28;20124;-50
2022/09/01 08:13:17;;;;;;;4.63;1.92;;;;;;;18.18;56.78;101973.34;5026959;28;20504;-50
2022/09/01 08:15:49;;;;;;;6.70;2.60;;;;;;;18.19;56.88;101980.50;5017150;28;20092;-54
2022/09/01 08:18:35;;;;;;;3.83;2.00;;;;;;;18.29;56.52;101972.13;5020224;28;20121;-54
2022/09/01 08:21:28;;;;;;;8.48;2.10;;;;;;;18.38;56.33;101982.53;5027933;28;20061;-54
2022/09/01 08:23:59;;;;;;;6.07;2.10;;;;;;;18.45;55.97;101988.53;5022588;28;20042;-59
2022/09/01 08:26:28;;;;;;;7.32;2.85;;;;;;;18.48;56.26;101976.91;5016042;28;20045;-51
2022/09/01 08:28:56;;;;;;;6.00;1.95;;;;;;;18.53;55.86;101979.59;5014189;28;20040;-49
2022/09/01 08:31:29;;;;;;;7.65;2.47;;;;;;;18.54;56.00;101981.22;5016817;28;20044;-47
2022/09/01 08:33:59;;;;;;;4.20;1.90;;;;;;;18.55;56.11;101980.13;5022791;28;20080;-50
2022/09/01 08:36:28;;;;;;;6.45;1.92;;;;;;;18.56;56.12;101973.47;4998327;28;20053;-50
2022/09/01 08:38:56;;;;;;;7.18;2.08;;;;;;;18.59;56.19;101972.06;5003053;28;20049;-50
2022/09/01 08:41:43;;;;;;;6.07;2.13;;;;;;;18.63;56.11;101968.44;5011670;28;20071;-50
2022/09/01 08:44:26;;;;;;;5.85;2.25;;;;;;;18.69;55.95;101972.78;4997230;28;20049;-50
2022/09/01 08:47:00;;;;;;;6.45;2.03;;;;;;;18.73;55.98;101973.81;5013072;28;20038;-50
2022/09/01 08:49:28;;;;;;;5.68;1.92;;;;;;;18.84;55.48;101970.97;5011805;28;20053;-50
2022/09/01 08:52:22;;;;;;;7.70;2.42;;;;;;;18.94;54.82;101970.84;5012424;28;20042;-51
2022/09/01 08:55:13;;;;;;;7.88;2.08;;;;;;;19.06;54.58;101967.66;5002030;28;20041;-51
2022/09/01 08:57:44;;;;;;;8.15;2.20;;;;;;;19.10;54.29;101964.00;5012656;28;20049;-48
2022/09/01 09:00:29;;;;;;;3.38;2.00;;;;;;;19.10;54.02;101969.53;5015417;28;20088;-50
2022/09/01 09:03:16;;;;;;;7.85;2.30;;;;;;;19.18;53.44;101970.78;5021266;28;20041;-51
2022/09/01 09:06:05;;;;;;;6.30;2.28;;;;;;;19.24;53.26;101961.31;5033249;28;20044;-52
2022/09/01 09:08:55;;;;;;;4.65;2.00;;;;;;;19.26;53.10;101959.06;5016174;28;20104;-50
2022/09/01 09:11:49;;;;;;;4.20;1.83;;;;;;;19.38;52.50;101961.38;5024680;28;20045;-51
2022/09/01 09:15:08;;;;;;;2.85;1.80;;;;;;;19.41;52.45;101954.41;5017252;28;20045;-51
2022/09/01 09:17:42;;;;;;;9.65;2.00;;;;;;;19.44;52.01;101960.16;4981697;28;20054;-52
2022/09/01 09:20:10;;;;;;;6.10;2.00;;;;;;;19.49;51.27;101951.78;5033405;28;20507;-52
2022/09/01 09:22:37;;;;;;;3.15;1.70;;;;;;;19.48;51.60;101949.31;5033681;28;20038;-51
2022/09/01 09:25:15;;;;;;;4.80;1.80;;;;;;;19.47;51.62;101954.03;5016884;28;20037;-49
2022/09/01 09:27:48;;;;;;;5.10;2.25;;;;;;;19.51;51.22;101951.50;5033388;28;20067;-49
2022/09/01 09:30:18;;;;;;;3.85;1.95;;;;;;;19.64;50.48;101952.66;4999813;28;20061;-53
2022/09/01 09:32:52;;;;;;;6.82;2.15;;;;;;;19.70;49.50;101945.94;5033475;28;20041;-48
2022/09/01 09:35:43;;;;;;;6.05;2.10;;;;;;;19.72;49.84;101947.31;5033541;28;20067;-49
2022/09/01 09:38:17;;;;;;;2.55;1.90;;;;;;;19.74;49.00;101945.03;5033325;28;20038;-49
2022/09/01 09:40:59;;;;;;;4.20;1.75;;;;;;;19.81;49.77;101943.84;5033218;28;20455;-51
2022/09/01 09:43:57;;;;;;;8.60;1.80;;;;;;;19.93;48.75;101939.47;5020797;28;20045;-50
2022/09/01 09:46:31;;;;;;;4.63;1.85;;;;;;;20.03;48.26;101938.44;5016039;28;20416;-50
2022/09/01 09:49:11;;;;;;;5.40;2.00;;;;;;;20.03;48.00;101932.91;5033236;28;20049;-50
2022/09/01 09:51:41;;;;;;;2.78;1.88;;;;;;;20.04;47.54;101933.75;5034064;28;20056;-52
2022/09/01 09:54:17;;;;;;;5.47;2.20;;;;;;;20.03;48.30;101927.38;5015122;28;20419;-52
2022/09/01 09:56:47;;;;;;;6.75;2.13;;;;;;;20.05;47.83;101929.84;5031378;28;20484;-53
2022/09/01 09:59:52;;;;;;;6.18;2.10;;;;;;;20.08;48.42;101929.25;5014362;28;20050;-50
2022/09/01 10:02:42;;;;;;;8.65;3.80;;;;;;;20.09;47.64;101925.38;5009643;28;20061;-51
2022/09/01 10:05:35;;;;;;;9.18;3.13;;;;;;;20.11;47.80;101912.06;5031508;28;20052;-51
2022/09/01 10:08:05;;;;;;;5.13;2.33;;;;;;;20.18;45.80;101920.75;5020408;28;20057;-53
2022/09/01 10:10:38;;;;;;;5.07;2.20;;;;;;;20.18;46.29;101926.31;5007847;28;20034;-51
2022/09/01 10:13:11;;;;;;;8.77;3.08;;;;;;;20.20;46.42;101915.72;5026846;28;20052;-50
2022/09/01 10:15:42;;;;;;;5.15;2.22;;;;;;;20.26;45.37;101920.03;5027441;28;20053;-53
2022/09/01 10:18:18;;;;;;;7.88;2.72;;;;;;;20.32;45.95;101916.03;5003819;28;20072;-51
2022/09/01 10:21:07;;;;;;;4.55;1.80;;;;;;;20.44;44.90;101904.44;5028684;28;20068;-54
2022/09/01 10:23:36;;;;;;;7.85;2.00;;;;;;;20.47;44.84;101903.84;5015521;28;20041;-50
2022/09/01 10:26:32;;;;;;;7.82;2.15;;;;;;;20.58;45.17;101904.47;5014569;28;20038;-51
2022/09/01 10:29:15;;;;;;;6.80;2.10;;;;;;;20.61;44.59;101909.38;5026026;28;20199;-50
2022/09/01 10:31:43;;;;;;;3.83;1.67;;;;;;;20.65;42.66;101904.88;5015087;28;20037;-53
2022/09/01 10:34:18;;;;;;;7.07;2.20;;;;;;;20.63;44.03;101901.59;5031581;28;20408;-52
2022/09/01 10:36:47;;;;;;;8.50;2.35;;;;;;;20.63;43.14;101898.81;5010612;28;20056;-51
2022/09/01 10:39:23;;;;;;;4.18;2.00;;;;;;;20.68;42.49;101901.47;5016431;28;20052;-53
2022/09/01 10:42:06;;;;;;;4.68;2.20;;;;;;;20.69;43.67;101892.06;5020683;28;20430;-49
2022/09/01 10:44:37;;;;;;;4.57;2.00;;;;;;;20.72;43.35;101896.97;5013891;28;20526;-54
2022/09/01 10:47:11;;;;;;;3.50;1.70;;;;;;;20.73;42.00;101889.47;5031727;28;20053;-57
2022/09/01 10:49:45;;;;;;;2.60;2.00;;;;;;;20.78;41.80;101890.19;5015854;28;20034;-52
2022/09/01 10:52:42;;;;;;;4.10;2.03;;;;;;;20.95;40.12;101892.31;5038331;28;20385;-46
2022/09/01 10:55:25;;;;;;;2.97;1.83;;;;;;;21.15;39.30;101887.41;5030204;28;20593;-50
2022/09/01 10:58:02;;;;;;;2.90;1.90;;;;;;;21.15;39.71;101879.91;5020366;28;20038;-49
2022/09/01 11:00:51;;;;;;;4.75;1.25;;;;;;;21.06;39.90;101876.25;5001101;28;20102;-47
2022/09/01 11:03:49;;;;;;;3.08;1.48;;;;;;;21.04;39.13;101875.72;5031213;28;20090;-51
2022/09/01 11:06:40;;;;;;;3.97;1.77;;;;;;;21.13;39.45;101878.59;5019759;28;20507;-51
2022/09/01 11:09:27;;;;;;;2.92;1.55;;;;;;;21.12;38.39;101886.09;5032360;28;20050;-49
2022/09/01 11:12:06;;;;;;;5.57;1.67;;;;;;;21.16;38.22;101876.00;5020255;28;20034;-51
2022/09/01 11:14:53;;;;;;;7.05;1.83;;;;;;;21.19;38.52;101883.69;5015807;28;20045;-50
2022/09/01 11:17:30;;;;;;;3.30;1.80;;;;;;;21.23;37.35;101881.91;5015209;28;20038;-50
2022/09/01 11:20:25;;;;;;;6.40;2.15;;;;;;;21.41;36.80;101882.91;5020249;28;20087;-52
2022/09/01 11:22:56;;;;;;;3.72;1.60;;;;;;;21.61;35.85;101881.56;5033197;28;20041;-51
2022/09/01 11:25:39;;;;;;;10.63;2.17;;;;;;;21.59;36.29;101875.50;5016570;28;20045;-49
2022/09/01 11:28:22;;;;;;;14.25;3.33;;;;;;;21.57;36.10;101877.78;5005610;28;20045;-50
2022/09/01 11:31:05;;;;;;;5.97;1.70;;;;;;;21.58;35.74;101873.06;5035649;28;20050;-49
2022/09/01 11:34:07;;;;;;;2.67;1.48;;;;;;;21.59;35.93;101880.25;5022968;28;20515;-50
2022/09/01 11:36:46;;;;;;;2.50;1.30;;;;;;;21.61;35.66;101864.91;5019296;28;20034;-54
2022/09/01 11:39:25;;;;;;;1.95;1.20;;;;;;;21.57;35.76;101863.91;5035614;28;20048;-49
2022/09/01 11:42:06;;;;;;;1.42;1.20;;;;;;;21.50;35.72;101863.53;5035330;28;20462;-50
2022/09/01 11:44:51;;;;;;;1.35;1.23;;;;;;;21.52;34.85;101863.22;5035731;28;20053;-51
2022/09/01 11:47:32;;;;;;;3.80;1.60;;;;;;;21.59;34.87;101845.00;5034659;28;20531;-51
2022/09/01 11:50:06;;;;;;;3.92;1.30;;;;;;;21.80;34.33;101855.56;5039924;28;20041;-50
2022/09/01 11:52:36;;;;;;;3.17;1.40;;;;;;;21.81;33.25;101851.63;5035444;28;20084;-51
2022/09/01 11:55:05;;;;;;;2.17;1.42;;;;;;;21.74;33.27;101857.63;5017550;28;20041;-50
2022/09/01 11:57:39;;;;;;;2.35;1.30;;;;;;;21.69;34.08;101855.84;5037972;28;20045;-50
2022/09/01 12:00:11;;;;;;;2.35;1.55;;;;;;;21.69;33.44;101860.53;5035278;28;20053;-51
2022/09/01 12:02:46;;;;;;;1.15;1.05;;;;;;;21.70;33.25;101849.13;5001345;28;20045;-51
2022/09/01 12:05:32;;;;;;;2.53;1.45;;;;;;;21.72;33.49;101842.44;5035259;28;20034;-50